Mars — WDD7627 — position and weather

sailwx.info

Track history (hours):
 
Tides and Currents Weather Stations Pressure Air Temp Water Temp Dewpoint Dewpoint Depression Visibility Wind Speed Wind Dir Waves Ship Positions

Mars

Owner: G & H Towing Company, Galveston, TX. More information available from US FCC via Universal Licensing System and Coast Guard Vessel Documentation Center.

Last reported at 2018-Jun-20 01:42 UTC. Time now 2018-Jun-21 17:33 UTC.
Position N 29°45' W 095°07'.

Length 28 m; draft 4.5 m.

Type: Tug. MMSI: 366921820.

Date/timePositionNaut miles runAvg speedWind from/ knotsBaromVisibWave heightAir tempDewpointWater temp
2018-Jun-20 01:42N 29°45' W 095°07'0 0.0
2018-Jun-20 01:28N 29°45' W 095°07'4 6.7
2018-Jun-20 00:49N 29°44' W 095°02'3 8.1
2018-Jun-20 00:29N 29°42' W 094°60'510.0
2018-Jun-20 00:00N 29°37' W 094°58'4 7.2
2018-Jun-19 23:30N 29°37' W 095°02'0 0.2
2018-Jun-19 22:59N 29°37' W 095°01'1 1.9
2018-Jun-19 22:30N 29°37' W 095°00'1 1.2
2018-Jun-19 21:59N 29°37' W 095°01'0 0.0
2018-Jun-19 21:29N 29°37' W 095°01'0 0.0
2018-Jun-19 20:57N 29°37' W 095°01'3 6.4
2018-Jun-19 20:30N 29°37' W 094°58'5 9.1
2018-Jun-19 20:00N 29°41' W 094°59'  
2018-Jun-13 19:59N 29°42' W 095°01'0 0.0
2018-Jun-13 09:49N 29°42' W 095°01'3 9.0
2018-Jun-13 09:27N 29°40' W 094°58'3 6.4
2018-Jun-13 09:00N 29°37' W 094°59'2 1.9
2018-Jun-13 08:06N 29°37' W 095°01'1 6.8
2018-Jun-13 08:00N 29°37' W 095°01'3 6.0
2018-Jun-13 07:31N 29°39' W 094°58'  
2018-Jun-11 02:22N 29°46' W 095°05'4 1.6
2018-Jun-10 23:36N 29°43' W 095°01'0 0.2
2018-Jun-10 23:27N 29°43' W 095°01'2 4.3
2018-Jun-10 22:53N 29°42' W 094°59'  
Track history (hours):
 
Tides and Currents Weather Stations Pressure Air Temp Water Temp Dewpoint Dewpoint Depression Visibility Wind Speed Wind Dir Waves Ship Positions

Mars

Owner: G & H Towing Company, Galveston, TX. More information available from US FCC via Universal Licensing System and Coast Guard Vessel Documentation Center.

Last reported at 2018-Jun-20 01:42 UTC. Time now 2018-Jun-21 17:33 UTC.
Position N 29°45' W 095°07'.

Length 28 m; draft 4.5 m.

Type: Tug. MMSI: 366921820.

Date/timePositionNaut miles runAvg speedWind from/ knotsBaromVisibWave heightAir tempDewpointWater temp
2018-Jun-20 01:42N 29°45' W 095°07'0 0.0
2018-Jun-20 01:28N 29°45' W 095°07'4 6.7
2018-Jun-20 00:49N 29°44' W 095°02'3 8.1
2018-Jun-20 00:29N 29°42' W 094°60'510.0
2018-Jun-20 00:00N 29°37' W 094°58'4 7.2
2018-Jun-19 23:30N 29°37' W 095°02'0 0.2
2018-Jun-19 22:59N 29°37' W 095°01'1 1.9
2018-Jun-19 22:30N 29°37' W 095°00'1 1.2
2018-Jun-19 21:59N 29°37' W 095°01'0 0.0
2018-Jun-19 21:29N 29°37' W 095°01'0 0.0
2018-Jun-19 20:57N 29°37' W 095°01'3 6.4
2018-Jun-19 20:30N 29°37' W 094°58'5 9.1
2018-Jun-19 20:00N 29°41' W 094°59'  
2018-Jun-13 19:59N 29°42' W 095°01'0 0.0
2018-Jun-13 09:49N 29°42' W 095°01'3 9.0
2018-Jun-13 09:27N 29°40' W 094°58'3 6.4
2018-Jun-13 09:00N 29°37' W 094°59'2 1.9
2018-Jun-13 08:06N 29°37' W 095°01'1 6.8
2018-Jun-13 08:00N 29°37' W 095°01'3 6.0
2018-Jun-13 07:31N 29°39' W 094°58'  
2018-Jun-11 02:22N 29°46' W 095°05'4 1.6
2018-Jun-10 23:36N 29°43' W 095°01'0 0.2
2018-Jun-10 23:27N 29°43' W 095°01'2 4.3
2018-Jun-10 22:53N 29°42' W 094°59'  

Dump ship's entire track history